Time;durP1;ratioP1;P1;durP2;ratioP2;P2;SDS_P1;SDS_P2;PMS_P1;PMS_P2;Temp;Humidity;BMP_temperature;BMP_pressure;BME280_temperature;BME280_humidity;BME280_pressure;Samples;Min_cycle;Max_cycle;Signal;HPM_P1;HPM_P2
2023/04/09 00:01:37;;;;;;;;;;;;;;;20.10;37.10;102770.38;5081857;28;20102;-67
2023/04/09 00:04:03;;;;;;;;;;;;;;;20.11;36.99;102764.16;5083893;28;19940;-68
2023/04/09 00:06:28;;;;;;;;;;;;;;;20.07;37.10;102773.28;5079601;28;19953;-67
2023/04/09 00:08:53;;;;;;;;;;;;;;;20.09;37.13;102772.19;5083194;28;19969;-68
2023/04/09 00:11:19;;;;;;;;;;;;;;;20.10;36.91;102773.84;5083814;28;19938;-69
2023/04/09 00:13:45;;;;;;;;;;;;;;;20.13;36.95;102768.31;5084374;28;20024;-68
2023/04/09 00:16:10;;;;;;;;;;;;;;;20.15;36.95;102771.66;5092193;28;19970;-69
2023/04/09 00:18:35;;;;;;;;;;;;;;;20.01;37.27;102779.13;5085942;28;19975;-69
2023/04/09 00:21:00;;;;;;;;;;;;;;;20.04;37.16;102777.06;5080888;28;19989;-68
2023/04/09 00:23:26;;;;;;;;;;;;;;;20.14;36.91;102774.44;5082885;28;19931;-68
2023/04/09 00:25:51;;;;;;;;;;;;;;;20.06;37.02;102775.09;5083015;28;19956;-66
2023/04/09 00:28:16;;;;;;;;;;;;;;;20.01;37.28;102773.84;5082422;28;19941;-69
2023/04/09 00:30:42;;;;;;;;;;;;;;;20.08;37.11;102761.75;5084327;28;19959;-69
2023/04/09 00:33:07;;;;;;;;;;;;;;;20.08;36.91;102764.38;5084258;28;19979;-69
2023/04/09 00:35:33;;;;;;;;;;;;;;;20.14;36.90;102762.06;5083151;28;19948;-69
2023/04/09 00:37:58;;;;;;;;;;;;;;;20.06;37.03;102753.13;5083109;28;19939;-68
2023/04/09 00:40:23;;;;;;;;;;;;;;;20.10;37.01;102758.00;5083410;28;19938;-69
2023/04/09 00:42:49;;;;;;;;;;;;;;;20.07;37.03;102758.25;5084789;28;19946;-69
2023/04/09 00:45:14;;;;;;;;;;;;;;;19.99;37.19;102752.00;5083013;28;20343;-67
2023/04/09 00:47:42;;;;;;;;;;;;;;;20.05;37.15;102754.09;5082819;28;20079;-67
2023/04/09 00:50:07;;;;;;;;;;;;;;;20.11;37.07;102751.75;5083636;28;20144;-67
2023/04/09 00:52:33;;;;;;;;;;;;;;;20.05;37.10;102746.97;5083196;28;19939;-67
2023/04/09 00:54:59;;;;;;;;;;;;;;;20.02;37.16;102749.06;5095746;27;20015;-68
2023/04/09 00:57:25;;;;;;;;;;;;;;;19.97;37.29;102751.28;5081198;28;19938;-67
2023/04/09 00:59:50;;;;;;;;;;;;;;;20.02;37.24;102747.25;5079921;28;20045;-67
2023/04/09 01:02:16;;;;;;;;;;;;;;;20.02;37.13;102754.34;5089123;28;20467;-67
2023/04/09 01:04:42;;;;;;;;;;;;;;;20.07;37.04;102754.78;5083410;28;19951;-67
2023/04/09 01:07:19;;;;;;;;;;;;;;;20.03;37.17;102750.75;5085929;28;19966;-67
2023/04/09 01:10:03;;;;;;;;;;;;;;;20.06;37.16;102745.19;5081000;28;19945;-67
2023/04/09 01:13:05;;;;;;;;;;;;;;;20.06;37.04;102746.00;5098730;27;19933;-67
2023/04/09 01:15:35;;;;;;;;;;;;;;;20.05;37.16;102735.56;5070263;28;19941;-67
2023/04/09 01:18:19;;;;;;;;;;;;;;;20.01;37.21;102732.38;5113246;27;20031;-67
2023/04/09 01:20:50;;;;;;;;;;;;;;;19.98;37.21;102734.44;5079895;28;19935;-67
2023/04/09 01:23:28;;;;;;;;;;;;;;;20.07;37.03;102723.03;5084045;28;20701;-67
2023/04/09 01:25:56;;;;;;;;;;;;;;;20.07;37.10;102723.03;5080795;28;20591;-67
2023/04/09 01:28:26;;;;;;;;;;;;;;;20.00;37.12;102716.63;5095340;28;19943;-67
2023/04/09 01:30:56;;;;;;;;;;;;;;;20.03;37.19;102711.06;5090850;28;19946;-68
2023/04/09 01:33:22;;;;;;;;;;;;;;;19.98;37.21;102708.00;5077925;28;20631;-67
2023/04/09 01:35:48;;;;;;;;;;;;;;;19.97;37.25;102712.47;5076893;28;19959;-67
2023/04/09 01:38:17;;;;;;;;;;;;;;;19.97;37.19;102714.28;5076209;28;20027;-67
2023/04/09 01:40:42;;;;;;;;;;;;;;;19.97;37.36;102711.63;5079017;28;20760;-67
2023/04/09 01:43:09;;;;;;;;;;;;;;;19.98;37.23;102711.50;5084729;28;19965;-67
2023/04/09 01:45:35;;;;;;;;;;;;;;;19.97;37.28;102714.28;5078279;28;19980;-67
2023/04/09 01:48:01;;;;;;;;;;;;;;;19.96;37.27;102718.72;5076033;28;19935;-67
2023/04/09 01:50:26;;;;;;;;;;;;;;;19.94;37.28;102711.91;5097860;28;19939;-67
2023/04/09 01:52:52;;;;;;;;;;;;;;;19.94;37.33;102715.38;5083449;28;19943;-67
2023/04/09 01:55:17;;;;;;;;;;;;;;;19.97;37.23;102717.75;5078814;28;19940;-67
2023/04/09 01:57:43;;;;;;;;;;;;;;;20.04;37.08;102718.03;5080291;28;19933;-67
2023/04/09 02:00:09;;;;;;;;;;;;;;;19.94;37.26;102725.13;5078226;28;20940;-67
2023/04/09 02:03:01;;;;;;;;;;;;;;;19.98;37.17;102729.16;5082621;28;19948;-67
2023/04/09 02:05:30;;;;;;;;;;;;;;;20.05;37.20;102727.63;5077932;28;19938;-67
2023/04/09 02:07:57;;;;;;;;;;;;;;;19.92;37.40;102733.16;5079176;28;19970;-67
2023/04/09 02:10:25;;;;;;;;;;;;;;;19.94;37.30;102735.69;5080728;28;19946;-67
2023/04/09 02:12:51;;;;;;;;;;;;;;;19.96;37.23;102734.59;5083328;28;19980;-67
2023/04/09 02:15:18;;;;;;;;;;;;;;;19.99;37.18;102738.75;5079981;28;19931;-67
2023/04/09 02:17:43;;;;;;;;;;;;;;;20.03;37.16;102738.34;5087674;28;19992;-67
2023/04/09 02:20:09;;;;;;;;;;;;;;;19.95;37.20;102724.97;5083232;28;20018;-67
2023/04/09 02:22:34;;;;;;;;;;;;;;;19.97;37.22;102724.84;5084162;28;19936;-67
2023/04/09 02:24:59;;;;;;;;;;;;;;;19.86;37.45;102720.50;5084039;28;20009;-67
2023/04/09 02:27:25;;;;;;;;;;;;;;;20.00;37.06;102717.47;5081516;28;19964;-67
2023/04/09 02:29:50;;;;;;;;;;;;;;;19.94;37.26;102725.97;5085840;28;19943;-67
2023/04/09 02:32:16;;;;;;;;;;;;;;;19.95;37.31;102717.06;5082141;28;20537;-67
2023/04/09 02:34:41;;;;;;;;;;;;;;;19.96;37.22;102718.72;5078717;28;19996;-67
2023/04/09 02:37:07;;;;;;;;;;;;;;;19.91;37.37;102718.25;5116003;27;19945;-67
2023/04/09 02:39:32;;;;;;;;;;;;;;;19.96;37.25;102725.81;5086852;28;19955;-67
2023/04/09 02:41:57;;;;;;;;;;;;;;;19.92;37.30;102717.28;5083859;28;20053;-66
2023/04/09 02:44:25;;;;;;;;;;;;;;;19.94;37.14;102703.97;5085213;28;19957;-67
2023/04/09 02:46:52;;;;;;;;;;;;;;;19.86;37.43;102718.69;5089918;28;19959;-67
2023/04/09 02:49:17;;;;;;;;;;;;;;;19.83;37.38;102716.31;5090948;28;20034;-68
2023/04/09 02:51:43;;;;;;;;;;;;;;;19.91;37.32;102702.41;5080608;28;19952;-67
2023/04/09 02:54:08;;;;;;;;;;;;;;;19.89;37.32;102709.63;5083349;28;20333;-67
2023/04/09 02:56:33;;;;;;;;;;;;;;;19.93;37.23;102703.13;5085593;28;21111;-67
2023/04/09 02:58:59;;;;;;;;;;;;;;;19.88;37.41;102700.03;5088955;28;20048;-67
2023/04/09 03:01:24;;;;;;;;;;;;;;;19.85;37.44;102697.66;5086057;28;19949;-68
2023/04/09 03:03:49;;;;;;;;;;;;;;;19.96;37.23;102694.91;5084036;28;20058;-67
2023/04/09 03:06:15;;;;;;;;;;;;;;;19.89;37.29;102694.59;5089017;28;19957;-67
2023/04/09 03:08:40;;;;;;;;;;;;;;;19.85;37.45;102687.94;5087870;28;19963;-67
2023/04/09 03:11:06;;;;;;;;;;;;;;;19.87;37.35;102687.78;5084314;28;19985;-67
2023/04/09 03:13:31;;;;;;;;;;;;;;;19.90;37.29;102691.00;5087149;28;19941;-67
2023/04/09 03:15:56;;;;;;;;;;;;;;;19.85;37.33;102679.16;5082218;28;19937;-67
2023/04/09 03:18:22;;;;;;;;;;;;;;;19.86;37.44;102683.47;5089864;28;19954;-67
2023/04/09 03:20:47;;;;;;;;;;;;;;;19.84;37.47;102680.13;5090357;28;19986;-67
2023/04/09 03:23:14;;;;;;;;;;;;;;;19.87;37.17;102680.69;5083858;28;19938;-67
2023/04/09 03:25:44;;;;;;;;;;;;;;;19.90;37.38;102674.28;5089255;28;20400;-67
2023/04/09 03:28:16;;;;;;;;;;;;;;;19.87;37.33;102671.91;5085765;28;19948;-67
2023/04/09 03:30:49;;;;;;;;;;;;;;;19.84;37.34;102673.03;5080805;28;20295;-67
2023/04/09 03:33:14;;;;;;;;;;;;;;;19.83;37.42;102679.28;5080216;28;19938;-67
2023/04/09 03:35:48;;;;;;;;;;;;;;;19.79;37.47;102674.41;5086372;28;19990;-67
2023/04/09 03:38:15;;;;;;;;;;;;;;;19.87;37.33;102672.75;5083670;28;20017;-67
2023/04/09 03:40:41;;;;;;;;;;;;;;;19.78;37.50;102681.50;5087247;28;19975;-67
2023/04/09 03:43:07;;;;;;;;;;;;;;;19.79;37.45;102680.53;5085145;28;19985;-67
2023/04/09 03:45:34;;;;;;;;;;;;;;;19.80;37.44;102679.56;5081701;28;20002;-67
2023/04/09 03:48:12;;;;;;;;;;;;;;;19.84;37.36;102683.59;5080783;28;19946;-67
2023/04/09 03:50:39;;;;;;;;;;;;;;;19.83;37.37;102683.75;5078729;28;19951;-67
2023/04/09 03:53:06;;;;;;;;;;;;;;;19.90;37.26;102682.22;5084287;28;19931;-67
2023/04/09 03:55:32;;;;;;;;;;;;;;;19.86;37.37;102676.38;5082859;28;19945;-67
2023/04/09 03:58:01;;;;;;;;;;;;;;;19.80;37.36;102671.63;5086178;28;19961;-67
2023/04/09 04:00:30;;;;;;;;;;;;;;;19.79;37.45;102679.72;5080242;28;19943;-67
2023/04/09 04:03:13;;;;;;;;;;;;;;;19.79;37.46;102669.13;5080736;28;19973;-67
2023/04/09 04:06:05;;;;;;;;;;;;;;;19.81;37.44;102670.66;5075969;28;20031;-67
2023/04/09 04:08:43;;;;;;;;;;;;;;;19.81;37.37;102667.19;5082124;28;19998;-67
2023/04/09 04:11:09;;;;;;;;;;;;;;;19.76;37.50;102672.06;5085038;28;20046;-67
2023/04/09 04:13:35;;;;;;;;;;;;;;;19.78;37.45;102678.03;5101971;27;20644;-67
2023/04/09 04:16:08;;;;;;;;;;;;;;;19.80;37.37;102668.16;5081613;28;19959;-67
2023/04/09 04:18:35;;;;;;;;;;;;;;;19.82;37.43;102671.50;5096177;27;19945;-68
2023/04/09 04:21:01;;;;;;;;;;;;;;;19.80;37.46;102669.00;5089406;28;20590;-67
2023/04/09 04:23:27;;;;;;;;;;;;;;;19.82;37.35;102661.75;5090607;28;19934;-67
2023/04/09 04:26:08;;;;;;;;;;;;;;;19.82;37.48;102660.94;5100958;27;19964;-68
2023/04/09 04:28:35;;;;;;;;;;;;;;;19.87;37.21;102664.00;5082131;28;19935;-68
2023/04/09 04:31:00;;;;;;;;;;;;;;;19.70;37.54;102676.03;5078966;28;19940;-68
2023/04/09 04:33:31;;;;;;;;;;;;;;;19.76;37.59;102678.19;5084325;28;19931;-68
2023/04/09 04:36:07;;;;;;;;;;;;;;;19.71;37.53;102672.44;5080965;28;19985;-67
2023/04/09 04:38:40;;;;;;;;;;;;;;;19.80;37.47;102678.75;5085789;28;20928;-67
2023/04/09 04:41:11;;;;;;;;;;;;;;;19.84;37.34;102675.69;5092635;28;20699;-67
2023/04/09 04:43:40;;;;;;;;;;;;;;;19.76;37.48;102677.34;5082023;28;19937;-68
2023/04/09 04:46:07;;;;;;;;;;;;;;;19.71;37.38;102677.72;5081320;28;19959;-68
2023/04/09 04:48:32;;;;;;;;;;;;;;;19.72;37.59;102683.84;5086213;28;19934;-69
2023/04/09 04:51:00;;;;;;;;;;;;;;;19.72;37.48;102682.03;5084327;28;20338;-69
2023/04/09 04:53:32;;;;;;;;;;;;;;;19.66;37.73;102684.38;5081273;28;19933;-69
2023/04/09 04:56:02;;;;;;;;;;;;;;;19.73;37.60;102688.16;5079483;28;19943;-69
2023/04/09 04:58:28;;;;;;;;;;;;;;;19.75;37.54;102691.50;5083234;28;19947;-69
2023/04/09 05:00:57;;;;;;;;;;;;;;;19.72;37.58;102686.47;5083328;28;19976;-69
2023/04/09 05:03:22;;;;;;;;;;;;;;;19.74;37.50;102681.91;5079665;28;19978;-68
2023/04/09 05:06:14;;;;;;;;;;;;;;;19.78;37.39;102685.97;5076946;28;20045;-68
2023/04/09 05:08:42;;;;;;;;;;;;;;;19.76;37.46;102683.47;5078208;28;19973;-68
2023/04/09 05:11:10;;;;;;;;;;;;;;;19.74;37.57;102688.00;5078986;28;20390;-68
2023/04/09 05:13:37;;;;;;;;;;;;;;;19.77;37.50;102687.78;5086414;28;19944;-68
2023/04/09 05:16:06;;;;;;;;;;;;;;;19.75;37.48;102692.38;5116914;27;20005;-68
2023/04/09 05:18:32;;;;;;;;;;;;;;;19.75;37.50;102697.66;5079976;28;19935;-68
2023/04/09 05:20:58;;;;;;;;;;;;;;;19.68;37.54;102688.56;5081687;28;19951;-68
2023/04/09 05:23:26;;;;;;;;;;;;;;;19.72;37.66;102689.97;5083662;28;19946;-69
2023/04/09 05:25:53;;;;;;;;;;;;;;;19.63;37.73;102693.41;5083373;28;19947;-68
2023/04/09 05:28:41;;;;;;;;;;;;;;;19.64;37.73;102691.63;5083717;28;19980;-68
2023/04/09 05:31:14;;;;;;;;;;;;;;;19.69;37.62;102694.69;5085138;28;19936;-68
2023/04/09 05:33:51;;;;;;;;;;;;;;;19.74;37.50;102693.31;5084387;28;19935;-68
2023/04/09 05:36:22;;;;;;;;;;;;;;;19.70;37.55;102697.19;5077769;28;19985;-68
2023/04/09 05:38:47;;;;;;;;;;;;;;;19.68;37.60;102691.22;5079977;28;19949;-69
2023/04/09 05:41:13;;;;;;;;;;;;;;;19.65;37.63;102698.56;5081826;28;20057;-69
2023/04/09 05:43:49;;;;;;;;;;;;;;;19.73;37.32;102696.91;5080580;28;19943;-69
2023/04/09 05:46:14;;;;;;;;;;;;;;;19.72;37.41;102689.13;5087243;28;20096;-68
2023/04/09 05:48:40;;;;;;;;;;;;;;;19.68;37.67;102688.56;5101323;28;20289;-68
2023/04/09 05:51:06;;;;;;;;;;;;;;;19.70;37.46;102694.53;5080392;28;20053;-68
2023/04/09 05:53:32;;;;;;;;;;;;;;;19.67;37.55;102692.19;5084857;28;20029;-68
2023/04/09 05:55:58;;;;;;;;;;;;;;;19.67;37.55;102686.88;5084504;28;19971;-68
2023/04/09 05:58:27;;;;;;;;;;;;;;;19.69;37.52;102677.03;5086196;28;19946;-68
2023/04/09 06:00:55;;;;;;;;;;;;;;;19.76;37.36;102678.19;5084953;28;20274;-68
2023/04/09 06:03:20;;;;;;;;;;;;;;;19.63;37.59;102677.56;5084968;28;19960;-68
2023/04/09 06:05:46;;;;;;;;;;;;;;;19.62;37.61;102681.19;5085058;28;19947;-68
2023/04/09 06:08:12;;;;;;;;;;;;;;;19.68;37.61;102672.72;5116984;27;20002;-68
2023/04/09 06:10:38;;;;;;;;;;;;;;;19.65;37.54;102675.63;5087308;28;19974;-68
2023/04/09 06:13:03;;;;;;;;;;;;;;;19.61;37.62;102684.78;5099396;28;19984;-68
2023/04/09 06:15:29;;;;;;;;;;;;;;;19.63;37.69;102687.31;5090720;28;20053;-68
2023/04/09 06:17:54;;;;;;;;;;;;;;;19.77;37.31;102684.28;5083036;28;20192;-68
2023/04/09 06:20:20;;;;;;;;;;;;;;;20.05;36.78;102688.81;5086280;28;19980;-69
2023/04/09 06:22:45;;;;;;;;;;;;;;;20.75;35.51;102690.41;5085027;28;20024;-68
2023/04/09 06:25:11;;;;;;;;;;;;;;;21.08;34.90;102690.91;5085630;28;20051;-68
2023/04/09 06:27:36;;;;;;;;;;;;;;;21.20;34.85;102704.84;5086465;28;19975;-68
2023/04/09 06:30:01;;;;;;;;;;;;;;;21.30;34.50;102705.66;5087165;28;19948;-68
2023/04/09 06:32:27;;;;;;;;;;;;;;;21.34;34.60;102701.75;5084494;28;19932;-68
2023/04/09 06:34:52;;;;;;;;;;;;;;;21.35;34.46;102704.25;5082331;28;19987;-68
2023/04/09 06:37:17;;;;;;;;;;;;;;;21.36;34.46;102703.28;5090477;28;19940;-68
2023/04/09 06:39:43;;;;;;;;;;;;;;;21.36;34.71;102707.72;5085910;28;19957;-68
2023/04/09 06:42:08;;;;;;;;;;;;;;;21.38;34.50;102703.16;5085655;28;20008;-68
2023/04/09 06:44:45;;;;;;;;;;;;;;;21.35;34.52;102698.94;5084916;28;19966;-68
2023/04/09 06:47:11;;;;;;;;;;;;;;;21.37;34.50;102699.66;5080689;28;19995;-68
2023/04/09 06:49:36;;;;;;;;;;;;;;;21.33;34.65;102697.44;5082984;28;19938;-68
2023/04/09 06:52:02;;;;;;;;;;;;;;;21.31;34.78;102696.75;5085534;28;19945;-68
2023/04/09 06:54:27;;;;;;;;;;;;;;;21.19;34.84;102689.94;5088827;28;19934;-68
2023/04/09 06:56:53;;;;;;;;;;;;;;;21.16;35.13;102688.38;5085306;28;19939;-67
2023/04/09 06:59:18;;;;;;;;;;;;;;;21.18;35.10;102690.88;5085879;28;19975;-69
2023/04/09 07:01:43;;;;;;;;;;;;;;;21.00;34.94;102665.13;5083935;28;19943;-69
2023/04/09 07:04:09;;;;;;;;;;;;;;;21.02;35.21;102699.44;5081501;28;19947;-68
2023/04/09 07:06:34;;;;;;;;;;;;;;;21.06;35.35;102700.81;5083720;28;19963;-68
2023/04/09 07:09:00;;;;;;;;;;;;;;;21.03;35.52;102696.66;5080708;28;20081;-68
2023/04/09 07:11:25;;;;;;;;;;;;;;;20.99;35.39;102694.41;5079841;28;19947;-68
2023/04/09 07:13:51;;;;;;;;;;;;;;;21.06;35.43;102696.38;5081687;28;19997;-68
2023/04/09 07:16:16;;;;;;;;;;;;;;;20.92;35.67;102704.75;5084651;28;20050;-69
2023/04/09 07:18:42;;;;;;;;;;;;;;;20.98;35.58;102704.16;5085635;28;19944;-69
2023/04/09 07:21:07;;;;;;;;;;;;;;;20.79;35.92;102704.19;5085161;28;19940;-69
2023/04/09 07:23:36;;;;;;;;;;;;;;;20.88;35.81;102706.00;5083908;28;21995;-69
2023/04/09 07:26:04;;;;;;;;;;;;;;;20.83;35.72;102702.97;5084160;28;19937;-68
2023/04/09 07:28:30;;;;;;;;;;;;;;;20.75;35.91;102706.28;5087476;28;19937;-68
2023/04/09 07:30:55;;;;;;;;;;;;;;;20.68;36.14;102707.00;5083750;28;19934;-69
2023/04/09 07:33:20;;;;;;;;;;;;;;;20.62;36.49;102707.53;5092964;28;19939;-69
2023/04/09 07:35:46;;;;;;;;;;;;;;;20.70;36.20;102715.66;5075766;28;19944;-70
2023/04/09 07:38:11;;;;;;;;;;;;;;;20.57;36.34;102713.25;5080320;28;20007;-69
2023/04/09 07:40:37;;;;;;;;;;;;;;;20.49;36.73;102715.78;5081457;28;19935;-67
2023/04/09 07:43:02;;;;;;;;;;;;;;;20.46;36.73;102723.97;5079843;28;19949;-67
2023/04/09 07:45:28;;;;;;;;;;;;;;;20.48;36.65;102720.25;5082448;28;19941;-68
2023/04/09 07:47:53;;;;;;;;;;;;;;;20.47;36.75;102715.09;5083266;28;20348;-68
2023/04/09 07:50:18;;;;;;;;;;;;;;;20.45;36.72;102714.38;5084808;28;20024;-68
2023/04/09 07:52:44;;;;;;;;;;;;;;;20.44;36.74;102704.75;5084479;28;19970;-68
2023/04/09 07:55:09;;;;;;;;;;;;;;;20.48;36.83;102708.81;5084217;28;20318;-66
2023/04/09 07:57:35;;;;;;;;;;;;;;;20.51;36.64;102711.19;5083473;28;19946;-67
2023/04/09 08:00:01;;;;;;;;;;;;;;;20.45;36.82;102706.44;5083597;28;19936;-67
2023/04/09 08:02:26;;;;;;;;;;;;;;;20.52;36.63;102710.22;5080434;28;19962;-67
2023/04/09 08:04:52;;;;;;;;;;;;;;;20.52;36.69;102705.75;5081919;28;19950;-67
2023/04/09 08:07:17;;;;;;;;;;;;;;;20.41;36.99;102702.38;5083185;28;19963;-67
2023/04/09 08:09:42;;;;;;;;;;;;;;;20.50;36.87;102705.06;5080587;28;19943;-67
2023/04/09 08:12:08;;;;;;;;;;;;;;;20.46;37.03;102702.81;5086465;28;19986;-67
2023/04/09 08:14:33;;;;;;;;;;;;;;;20.52;36.84;102704.91;5082699;28;19980;-67
2023/04/09 08:16:59;;;;;;;;;;;;;;;20.45;37.07;102695.84;5083169;28;19953;-67
2023/04/09 08:19:24;;;;;;;;;;;;;;;20.40;37.23;102705.97;5081204;28;19960;-67
2023/04/09 08:21:50;;;;;;;;;;;;;;;20.42;37.18;102706.72;5077926;28;20047;-67
2023/04/09 08:24:15;;;;;;;;;;;;;;;20.41;37.23;102711.16;5079899;28;19988;-67
2023/04/09 08:26:41;;;;;;;;;;;;;;;20.43;37.25;102708.38;5082965;28;19973;-67
2023/04/09 08:29:07;;;;;;;;;;;;;;;20.49;37.25;102705.19;5085393;28;19933;-67
2023/04/09 08:31:33;;;;;;;;;;;;;;;20.48;37.23;102701.72;5081348;28;19936;-67
2023/04/09 08:33:58;;;;;;;;;;;;;;;20.48;36.97;102707.00;5082171;28;20244;-67
2023/04/09 08:36:25;;;;;;;;;;;;;;;20.48;37.24;102708.81;5078802;28;20271;-67
2023/04/09 08:38:51;;;;;;;;;;;;;;;20.46;37.22;102703.63;5081372;28;20742;-68
2023/04/09 08:41:20;;;;;;;;;;;;;;;20.51;37.10;102704.09;5085385;28;19953;-67
2023/04/09 08:43:47;;;;;;;;;;;;;;;20.45;37.35;102698.50;5084753;28;19940;-69
2023/04/09 08:46:14;;;;;;;;;;;;;;;20.48;37.36;102707.00;5077940;28;20745;-68
2023/04/09 08:48:41;;;;;;;;;;;;;;;20.52;37.20;102707.56;5080631;28;19972;-69
2023/04/09 08:51:07;;;;;;;;;;;;;;;20.57;37.06;102709.78;5079452;28;19938;-69
2023/04/09 08:53:32;;;;;;;;;;;;;;;20.58;37.26;102700.88;5079806;28;20032;-68
2023/04/09 08:55:58;;;;;;;;;;;;;;;20.58;37.18;102706.16;5082413;28;19941;-68
2023/04/09 08:58:24;;;;;;;;;;;;;;;20.47;37.52;102701.84;5079241;28;19942;-67
2023/04/09 09:00:49;;;;;;;;;;;;;;;20.50;37.51;102696.28;5078211;28;20406;-67
2023/04/09 09:03:14;;;;;;;;;;;;;;;20.48;37.39;102695.59;5080867;28;20445;-67
2023/04/09 09:05:42;;;;;;;;;;;;;;;20.46;37.51;102701.00;5081602;28;19946;-68
2023/04/09 09:08:08;;;;;;;;;;;;;;;20.52;37.38;102702.28;5079220;28;19959;-67
2023/04/09 09:10:38;;;;;;;;;;;;;;;20.53;37.13;102701.28;5081748;28;20034;-67
2023/04/09 09:13:16;;;;;;;;;;;;;;;20.45;37.46;102694.03;5080682;28;19955;-68
2023/04/09 09:15:41;;;;;;;;;;;;;;;20.48;37.48;102695.59;5076315;28;19950;-68
2023/04/09 09:18:06;;;;;;;;;;;;;;;20.55;37.38;102695.84;5076693;28;19938;-67
2023/04/09 09:20:32;;;;;;;;;;;;;;;20.53;37.49;102693.34;5077557;28;19938;-69
2023/04/09 09:22:58;;;;;;;;;;;;;;;20.49;37.41;102695.44;5075399;28;20058;-68
2023/04/09 09:25:24;;;;;;;;;;;;;;;20.75;36.91;102693.06;5074302;28;19993;-69
2023/04/09 09:27:50;;;;;;;;;;;;;;;21.25;36.09;102692.84;5078769;28;19957;-69
2023/04/09 09:30:20;;;;;;;;;;;;;;;21.46;35.61;102684.69;5077125;28;20042;-68
2023/04/09 09:32:45;;;;;;;;;;;;;;;21.71;35.37;102662.78;5073404;28;19991;-75
2023/04/09 09:35:11;;;;;;;;;;;;;;;22.03;35.31;102688.84;5093150;27;20047;-73
2023/04/09 09:37:36;;;;;;;;;;;;;;;22.10;35.12;102689.13;5077971;28;19970;-76
2023/04/09 09:40:03;;;;;;;;;;;;;;;22.20;35.05;102681.94;5081405;28;19966;-74
2023/04/09 09:42:28;;;;;;;;;;;;;;;22.33;35.01;102683.38;5088260;28;19947;-77
2023/04/09 09:44:54;;;;;;;;;;;;;;;22.34;34.84;102682.41;5082021;28;19944;-73
2023/04/09 09:47:20;;;;;;;;;;;;;;;22.36;34.80;102669.81;5084419;28;20024;-77
2023/04/09 09:49:49;;;;;;;;;;;;;;;22.39;35.05;102677.47;5058310;28;19947;-78
2023/04/09 09:52:15;;;;;;;;;;;;;;;22.41;35.09;102673.66;5089363;28;20062;-75
2023/04/09 09:54:41;;;;;;;;;;;;;;;22.40;35.04;102672.00;5050993;28;20034;-77
2023/04/09 09:57:08;;;;;;;;;;;;;;;22.43;35.31;102671.69;5081101;28;19944;-72
2023/04/09 09:59:37;;;;;;;;;;;;;;;22.44;34.91;102664.56;5050578;28;19947;-74
2023/04/09 10:02:07;;;;;;;;;;;;;;;22.45;35.44;102660.94;5087327;28;19936;-74
2023/04/09 10:04:34;;;;;;;;;;;;;;;22.49;34.91;102659.66;5049634;28;19983;-74
2023/04/09 10:07:02;;;;;;;;;;;;;;;22.48;35.06;102663.28;5085149;28;20041;-77
2023/04/09 10:09:27;;;;;;;;;;;;;;;22.48;35.20;102658.81;5054745;28;19953;-74
2023/04/09 10:11:54;;;;;;;;;;;;;;;22.51;35.07;102663.81;5082724;28;19947;-73
2023/04/09 10:14:20;;;;;;;;;;;;;;;22.55;35.27;102672.28;5047424;28;20025;-73
2023/04/09 10:16:46;;;;;;;;;;;;;;;22.54;35.47;102671.47;5090034;28;20007;-75
2023/04/09 10:19:13;;;;;;;;;;;;;;;22.57;35.26;102671.16;5045510;28;19951;-73
2023/04/09 10:21:38;;;;;;;;;;;;;;;22.58;35.38;102664.84;5080926;28;19942;-71
2023/04/09 10:24:06;;;;;;;;;;;;;;;22.61;35.11;102669.84;5050641;28;19946;-73
2023/04/09 10:26:32;;;;;;;;;;;;;;;22.58;35.23;102656.06;5084774;28;19957;-74
2023/04/09 10:29:05;;;;;;;;;;;;;;;22.59;35.34;102660.38;5052684;28;20433;-77
2023/04/09 10:32:06;;;;;;;;;;;;;;;22.64;35.46;102652.81;5081839;28;19941;-75
2023/04/09 10:34:36;;;;;;;;;;;;;;;22.71;35.33;102645.03;5044059;28;20009;-82
2023/04/09 10:37:02;;;;;;;;;;;;;;;22.68;35.30;102640.88;5086640;28;20001;-74
2023/04/09 10:39:30;;;;;;;;;;;;;;;22.67;35.56;102643.69;5044278;28;19974;-73
2023/04/09 10:41:57;;;;;;;;;;;;;;;22.59;35.63;102639.13;5089688;28;20707;-69
2023/04/09 10:44:23;;;;;;;;;;;;;;;22.54;35.57;102638.78;5048850;28;26454;-69
2023/04/09 10:46:51;;;;;;;;;;;;;;;22.48;35.86;102632.25;5088756;28;19953;-70
2023/04/09 10:49:21;;;;;;;;;;;;;;;22.46;35.59;102630.75;5046869;28;20032;-69
2023/04/09 10:51:50;;;;;;;;;;;;;;;22.42;35.60;102630.19;5082796;28;19956;-69
2023/04/09 10:54:34;;;;;;;;;;;;;;;22.45;35.46;102623.78;5047962;28;19949;-69
2023/04/09 10:57:08;;;;;;;;;;;;;;;22.41;35.76;102625.06;5081924;28;20509;-69
2023/04/09 10:59:34;;;;;;;;;;;;;;;22.40;35.86;102628.69;5046285;28;19945;-70
2023/04/09 11:01:59;;;;;;;;;;;;;;;22.38;35.84;102618.22;5083399;28;19950;-69
2023/04/09 11:04:30;;;;;;;;;;;;;;;22.36;35.80;102620.22;5043518;28;19966;-69
2023/04/09 11:06:56;;;;;;;;;;;;;;;22.34;35.61;102618.69;5080608;28;19950;-69
2023/04/09 11:09:21;;;;;;;;;;;;;;;22.34;35.54;102616.88;5051844;28;19957;-69
2023/04/09 11:11:53;;;;;;;;;;;;;;;22.32;35.46;102613.53;5086368;28;19939;-69
2023/04/09 11:14:19;;;;;;;;;;;;;;;22.34;35.52;102614.22;5047601;28;19962;-69
2023/04/09 11:16:46;;;;;;;;;;;;;;;22.33;35.72;102607.25;5082722;28;19935;-68
2023/04/09 11:19:11;;;;;;;;;;;;;;;22.31;35.52;102603.91;5042467;28;19951;-69
2023/04/09 11:21:37;;;;;;;;;;;;;;;22.34;35.40;102600.13;5080312;28;19945;-69
2023/04/09 11:24:02;;;;;;;;;;;;;;;22.34;35.29;102595.66;5048377;28;20408;-69
2023/04/09 11:26:35;;;;;;;;;;;;;;;22.32;35.43;102597.63;5076411;28;19956;-68
2023/04/09 11:29:03;;;;;;;;;;;;;;;22.33;35.40;102598.44;5050507;28;19942;-69
2023/04/09 11:31:29;;;;;;;;;;;;;;;22.32;35.47;102597.63;5078218;28;19941;-69
2023/04/09 11:33:54;;;;;;;;;;;;;;;22.30;35.34;102595.13;5059209;28;20086;-68
2023/04/09 11:36:20;;;;;;;;;;;;;;;22.29;35.47;102590.81;5055334;28;20000;-68
2023/04/09 11:38:47;;;;;;;;;;;;;;;22.29;35.45;102585.50;5078765;28;22119;-68
2023/04/09 11:41:13;;;;;;;;;;;;;;;22.29;35.27;102587.31;5041855;28;19944;-68
2023/04/09 11:43:38;;;;;;;;;;;;;;;22.29;35.57;102584.66;5084697;28;19942;-68
2023/04/09 11:46:04;;;;;;;;;;;;;;;22.29;35.61;102585.50;5039974;28;20332;-68
2023/04/09 11:48:30;;;;;;;;;;;;;;;22.29;35.48;102582.84;5074928;28;19947;-68
2023/04/09 11:50:56;;;;;;;;;;;;;;;22.27;35.61;102582.16;5040762;28;19953;-69
2023/04/09 11:53:22;;;;;;;;;;;;;;;22.26;35.42;102575.19;5083355;28;21540;-68
2023/04/09 11:55:51;;;;;;;;;;;;;;;22.30;35.44;102570.41;5049214;28;19954;-68
2023/04/09 11:58:17;;;;;;;;;;;;;;;22.28;35.54;102570.56;5080524;28;19942;-68
2023/04/09 12:00:42;;;;;;;;;;;;;;;22.30;35.17;102565.94;5039220;28;20115;-68
2023/04/09 12:03:09;;;;;;;;;;;;;;;22.28;35.43;102575.88;5079127;28;19950;-68
2023/04/09 12:05:34;;;;;;;;;;;;;;;22.27;35.52;102573.38;5040103;28;19946;-68
2023/04/09 12:08:00;;;;;;;;;;;;;;;22.09;35.25;102546.03;5084042;28;19995;-68
2023/04/09 12:10:27;;;;;;;;;;;;;;;22.24;35.55;102568.34;5044177;28;20929;-69
2023/04/09 12:12:52;;;;;;;;;;;;;;;22.27;35.50;102568.06;5082033;28;21915;-68
2023/04/09 12:15:22;;;;;;;;;;;;;;;22.22;35.63;102563.19;5042413;28;19948;-69
2023/04/09 12:17:52;;;;;;;;;;;;;;;22.25;35.35;102562.88;5081153;28;20020;-68
2023/04/09 12:20:30;;;;;;;;;;;;;;;22.25;35.40;102565.53;5038442;28;19948;-68
2023/04/09 12:22:55;;;;;;;;;;;;;;;22.22;35.41;102563.19;5079470;28;19936;-68
2023/04/09 12:25:21;;;;;;;;;;;;;;;22.24;35.20;102561.22;5047254;28;20994;-68
2023/04/09 12:27:46;;;;;;;;;;;;;;;22.25;35.28;102557.56;5083310;28;19960;-68
2023/04/09 12:30:11;;;;;;;;;;;;;;;22.26;35.35;102556.63;5053096;28;20790;-69
2023/04/09 12:32:37;;;;;;;;;;;;;;;22.28;35.12;102557.28;5069682;28;20688;-71
2023/04/09 12:35:03;;;;;;;;;;;;;;;22.26;35.29;102561.94;5069296;28;19939;-70
2023/04/09 12:37:28;;;;;;;;;;;;;;;22.25;35.33;102549.63;5043152;28;19951;-70